Oosterhout, Netherlands

10:29 AM CET on February 07, 2016 (GMT +0100)
Oosterhout | | Change Station
CLOSE
Current Station
Personal Weather Station
Location: Oosterhout Nb, NOORD-BRABANT
Elevation: 3 ft
Nearby Weather Stations

Elev 3 ft 51.66 °N, 4.86 °E | Updated 9 seconds ago

Partly Cloudy
Partly Cloudy
46.4 °F
Feels Like 42 °F
N
9.2
Wind Variable Wind from South
Gusts 9.2 mph

Today
High -- | Low -- °F
--% Chance of Precip.
Yesterday
High -- | Low -- °F
Precip. -- in
Pressure 29.47 in
Visibility 6.2 miles
Clouds Few 1900 ft
Windchill 42 °F
Dew Point 42 °F
Humidity 85%
Rainfall 0.05 in
Snow Depth Not available.
8:10 AM 5:39 PM
Waning Crescent, 2% visible
METAR EHGR 070925Z AUTO 21010KT 170V250 9999 FEW019 08/05 Q0998 BLU
Pressure 29.47 in
Visibility 6.2 miles
Clouds Few 1900 ft
Windchill 42 °F
Dew Point 42 °F
Humidity 85%
Rainfall 0.05 in
Snow Depth Not available.
8:10 AM 5:39 PM
Waning Crescent, 2% visible
METAR EHGR 070925Z AUTO 21010KT 170V250 9999 FEW019 08/05 Q0998 BLU

10-Day Weather Forecast

Almanac

Astronomy

Feb. 07, 2016 Rise Set
Actual Time
Civil Twilight
Nautical Twilight
Astronomical Twilight
Moon
Length of Visible Light
Length of Day
Tomorrow will be .
, % of the Moon is Illuminated

Today's Extremes

Country Highs Country Lows

Community

WunderPhotos

Upload Photos

1,891,171 photos uploaded!

WunderBlog® & News

Nearby

Air Quality

  Air Quality AQ Index Pollutant
Not available.

Snow Depth

Station Depth Elevation

Earthquake Activity

City Distance Mag. Time & Date
Minimum magnitude displayed is 2.5.

Coastal Water Temperatures

Place Temperature

Stations

Nearby Weather Stations

Station Location Temp. Windchill Dew Point Humidity Wind Precip. Elev Updated Type